createdAt,value
2022-11-20T00:01:30.091Z,9.27
2022-11-20T00:03:59.030Z,9.60
2022-11-20T00:06:27.521Z,8.85
2022-11-20T00:08:59.234Z,9.63
2022-11-20T00:11:28.013Z,8.93
2022-11-20T00:13:58.042Z,9.17
2022-11-20T00:16:27.898Z,8.43
2022-11-20T00:18:56.107Z,9.40
2022-11-20T00:21:30.132Z,8.65
2022-11-20T00:23:58.640Z,9.07
2022-11-20T00:26:28.623Z,8.90
2022-11-20T00:28:59.243Z,7.60
2022-11-20T00:31:27.678Z,7.85
2022-11-20T00:33:54.572Z,7.03
2022-11-20T00:36:24.299Z,7.85
2022-11-20T00:38:55.810Z,11.13
2022-11-20T00:41:23.495Z,11.38
2022-11-20T00:43:52.386Z,8.55
2022-11-20T00:46:22.711Z,10.70
2022-11-20T00:48:50.312Z,8.65
2022-11-20T00:51:20.164Z,9.47
2022-11-20T00:53:50.161Z,11.52
2022-11-20T00:56:19.758Z,8.85
2022-11-20T00:58:48.864Z,10.18
2022-11-20T01:01:26.698Z,11.10
2022-11-20T01:03:56.279Z,11.70
2022-11-20T01:06:26.174Z,10.05
2022-11-20T01:08:56.087Z,10.35
2022-11-20T01:11:25.921Z,8.63
2022-11-20T01:13:54.279Z,9.23
2022-11-20T01:16:24.200Z,9.40
2022-11-20T01:18:54.018Z,10.57
2022-11-20T01:21:29.084Z,8.32
2022-11-20T01:23:56.934Z,8.57
2022-11-20T01:26:27.454Z,8.50
2022-11-20T01:28:56.326Z,9.43
2022-11-20T01:31:24.438Z,10.23
2022-11-20T01:33:54.454Z,8.60
2022-11-20T01:36:24.549Z,9.43
2022-11-20T01:38:58.621Z,8.10
2022-11-20T01:41:27.321Z,12.10
2022-11-20T01:43:54.197Z,12.93
2022-11-20T01:46:21.295Z,12.85
2022-11-20T01:48:57.080Z,9.40
2022-11-20T01:51:44.797Z,8.88
2022-11-20T01:54:21.435Z,12.27
2022-11-20T01:56:52.699Z,12.55
2022-11-20T01:59:21.803Z,11.40
2022-11-20T02:01:53.096Z,10.20
2022-11-20T02:04:21.317Z,9.52
2022-11-20T02:06:57.961Z,9.03
2022-11-20T02:09:24.978Z,8.32
2022-11-20T02:11:52.824Z,8.45
2022-11-20T02:14:21.493Z,8.80
2022-11-20T02:16:50.078Z,10.23
2022-11-20T02:19:31.063Z,9.37
2022-11-20T02:22:27.550Z,9.77
2022-11-20T02:24:54.453Z,7.88
2022-11-20T02:27:22.148Z,8.55
2022-11-20T02:29:59.489Z,9.20
2022-11-20T02:32:31.856Z,9.70
2022-11-20T02:34:59.595Z,8.27
2022-11-20T02:37:35.714Z,8.90
2022-11-20T02:40:02.439Z,9.27
2022-11-20T02:42:30.354Z,8.50
2022-11-20T02:44:57.357Z,7.20
2022-11-20T02:47:24.135Z,7.80
2022-11-20T02:49:51.268Z,6.97
2022-11-20T02:52:18.058Z,8.32
2022-11-20T02:54:47.624Z,7.95
2022-11-20T02:57:14.695Z,6.60
2022-11-20T02:59:41.667Z,6.82
2022-11-20T03:02:08.684Z,7.70
2022-11-20T03:04:35.883Z,6.35
2022-11-20T03:07:02.781Z,6.72
2022-11-20T03:09:31.527Z,6.00
2022-11-20T03:11:58.313Z,6.30
2022-11-20T03:14:25.212Z,5.60
2022-11-20T03:16:53.003Z,8.27
2022-11-20T03:19:20.136Z,7.70
2022-11-20T03:21:48.395Z,7.40
2022-11-20T03:24:15.716Z,8.40
2022-11-20T03:26:42.881Z,8.32
2022-11-20T03:29:09.628Z,10.57
2022-11-20T03:31:38.930Z,10.60
2022-11-20T03:34:06.098Z,9.00
2022-11-20T03:36:33.228Z,7.97
2022-11-20T03:39:00.769Z,7.63
2022-11-20T03:41:30.433Z,7.75
2022-11-20T03:44:01.945Z,10.00
2022-11-20T03:46:29.462Z,9.43
2022-11-20T03:48:57.573Z,10.13
2022-11-20T03:51:26.493Z,9.85
2022-11-20T03:53:55.964Z,8.52
2022-11-20T03:56:32.873Z,11.73
2022-11-20T03:59:00.048Z,10.20
2022-11-20T04:01:29.671Z,10.68
2022-11-20T04:03:57.898Z,11.00
2022-11-20T04:06:36.272Z,10.23
2022-11-20T04:09:04.036Z,8.63
2022-11-20T04:11:33.869Z,11.60
2022-11-20T04:14:02.945Z,12.55
2022-11-20T04:16:35.718Z,12.25
2022-11-20T04:19:04.842Z,8.40
2022-11-20T04:21:31.821Z,8.13
2022-11-20T04:23:58.760Z,7.90
2022-11-20T04:26:28.872Z,8.88
2022-11-20T04:28:56.372Z,8.20
2022-11-20T04:31:27.372Z,7.60
2022-11-20T04:33:55.007Z,9.40
2022-11-20T04:36:26.576Z,7.20
2022-11-20T04:39:14.212Z,7.55
2022-11-20T04:41:41.072Z,6.90
2022-11-20T04:44:07.782Z,7.10
2022-11-20T04:46:37.612Z,8.48
2022-11-20T04:49:05.222Z,9.00
2022-11-20T04:51:32.447Z,7.63
2022-11-20T04:53:59.753Z,7.03
2022-11-20T04:56:26.767Z,8.48
2022-11-20T04:58:53.676Z,8.00
2022-11-20T05:01:23.646Z,6.97
2022-11-20T05:03:51.177Z,6.93
2022-11-20T05:06:20.277Z,7.95
2022-11-20T05:08:47.175Z,7.38
2022-11-20T05:11:18.473Z,8.32
2022-11-20T05:13:45.499Z,8.03
2022-11-20T05:16:21.022Z,10.63
2022-11-20T05:18:48.584Z,11.25
2022-11-20T05:21:16.054Z,12.15
2022-11-20T05:23:44.028Z,11.57
2022-11-20T05:26:16.703Z,11.43
2022-11-20T05:28:43.793Z,11.38
2022-11-20T05:31:12.915Z,12.10
2022-11-20T05:33:42.413Z,10.15
2022-11-20T05:36:09.880Z,9.50
2022-11-20T05:38:37.032Z,10.40
2022-11-20T05:41:08.940Z,11.13
2022-11-20T05:43:37.010Z,14.43
2022-11-20T05:46:04.638Z,13.32
2022-11-20T05:48:32.321Z,18.58
2022-11-20T05:51:01.202Z,19.37
2022-11-20T05:53:28.420Z,19.08
2022-11-20T05:56:02.435Z,18.00
2022-11-20T05:58:30.130Z,16.30
2022-11-20T06:01:14.466Z,15.02
2022-11-20T06:03:42.942Z,16.67
2022-11-20T06:06:09.976Z,20.70
2022-11-20T06:08:36.892Z,19.63
2022-11-20T06:11:08.711Z,17.83
2022-11-20T06:13:40.614Z,18.27
2022-11-20T06:16:09.536Z,19.20
2022-11-20T06:18:36.566Z,18.40
2022-11-20T06:21:08.880Z,18.10
2022-11-20T06:23:36.886Z,17.75
2022-11-20T06:26:09.654Z,17.40
2022-11-20T06:28:36.506Z,16.50
2022-11-20T06:31:06.217Z,14.70
2022-11-20T06:33:34.042Z,14.73
2022-11-20T06:36:05.846Z,15.35
2022-11-20T06:38:34.284Z,15.55
2022-11-20T06:41:01.161Z,16.47
2022-11-20T06:43:30.457Z,15.68
2022-11-20T06:45:58.962Z,16.38
2022-11-20T06:48:28.436Z,15.93
2022-11-20T06:50:55.676Z,18.17
2022-11-20T06:53:23.758Z,16.97
2022-11-20T06:55:53.184Z,18.77
2022-11-20T06:58:20.033Z,20.55
2022-11-20T07:00:47.083Z,19.60
2022-11-20T07:03:14.319Z,17.83
2022-11-20T07:05:41.449Z,24.50
2022-11-20T07:08:10.535Z,21.98
2022-11-20T07:10:37.267Z,19.85
2022-11-20T07:13:04.155Z,19.20
2022-11-20T07:15:31.469Z,20.05
2022-11-20T07:18:01.446Z,18.03
2022-11-20T07:20:29.299Z,18.67
2022-11-20T07:22:57.544Z,19.38
2022-11-20T07:25:28.406Z,17.85
2022-11-20T07:28:00.246Z,17.60
2022-11-20T07:30:28.173Z,15.77
2022-11-20T07:32:57.033Z,15.68
2022-11-20T07:35:32.903Z,13.80
2022-11-20T07:37:59.821Z,16.35
2022-11-20T07:40:28.047Z,18.02
2022-11-20T07:42:56.278Z,20.57
2022-11-20T07:45:25.184Z,21.42
2022-11-20T07:47:52.696Z,21.17
2022-11-20T07:50:20.879Z,19.05
2022-11-20T07:52:48.830Z,20.92
2022-11-20T07:55:15.942Z,19.33
2022-11-20T07:57:43.686Z,19.63
2022-11-20T08:00:12.293Z,19.40
2022-11-20T08:02:40.152Z,17.38
2022-11-20T08:05:07.702Z,16.15
2022-11-20T08:07:43.084Z,15.87
2022-11-20T08:10:12.365Z,15.18
2022-11-20T08:12:51.188Z,15.07
2022-11-20T08:15:18.014Z,13.90
2022-11-20T08:18:02.032Z,15.88
2022-11-20T08:20:32.787Z,15.07
2022-11-20T08:23:04.443Z,13.73
2022-11-20T08:25:32.104Z,15.20
2022-11-20T08:28:10.306Z,15.43
2022-11-20T08:30:42.681Z,14.80
2022-11-20T08:33:10.460Z,15.23
2022-11-20T08:35:38.325Z,14.13
2022-11-20T08:38:06.269Z,15.38
2022-11-20T08:40:36.010Z,15.88
2022-11-20T08:43:02.911Z,16.38
2022-11-20T08:45:34.086Z,20.23
2022-11-20T08:48:04.780Z,21.63
2022-11-20T08:50:32.284Z,18.95
2022-11-20T08:53:06.701Z,19.05
2022-11-20T08:55:33.760Z,19.58
2022-11-20T08:58:05.412Z,18.27
2022-11-20T09:00:33.722Z,19.27
2022-11-20T09:03:01.127Z,22.30
2022-11-20T09:05:30.524Z,19.60
2022-11-20T09:08:03.989Z,18.55
2022-11-20T09:10:30.812Z,18.27
2022-11-20T09:13:00.903Z,18.33
2022-11-20T09:15:30.837Z,17.83
2022-11-20T09:18:02.685Z,17.65
2022-11-20T09:20:31.252Z,13.93
2022-11-20T09:22:59.129Z,10.47
2022-11-20T09:25:28.719Z,10.20
2022-11-20T09:28:01.339Z,14.18
2022-11-20T09:30:29.017Z,13.05
2022-11-20T09:32:56.127Z,13.60
2022-11-20T09:35:23.073Z,14.10
2022-11-20T09:37:50.124Z,11.82
2022-11-20T09:40:23.718Z,13.88
2022-11-20T09:43:15.366Z,11.88
2022-11-20T09:46:12.075Z,9.70
2022-11-20T09:49:00.455Z,14.10
2022-11-20T09:51:39.579Z,12.63
2022-11-20T09:54:18.060Z,12.27
2022-11-20T09:56:51.354Z,12.68
2022-11-20T09:59:44.113Z,13.68
2022-11-20T10:02:31.761Z,12.77
2022-11-20T10:05:03.706Z,12.00
2022-11-20T10:07:48.446Z,11.77
2022-11-20T10:10:30.714Z,11.10
2022-11-20T10:13:07.042Z,9.93
2022-11-20T10:15:48.646Z,8.50
2022-11-20T10:18:37.202Z,8.63
2022-11-20T10:21:18.579Z,5.20
2022-11-20T10:23:54.437Z,5.00
2022-11-20T10:26:49.452Z,5.60
2022-11-20T10:29:40.457Z,8.80
2022-11-20T10:32:17.542Z,4.75
2022-11-20T10:34:47.185Z,9.40
2022-11-20T10:37:23.679Z,9.85
2022-11-20T10:40:31.949Z,6.32
2022-11-20T10:43:03.271Z,7.93
2022-11-20T10:45:41.384Z,8.15
2022-11-20T10:48:08.189Z,7.07
2022-11-20T10:50:41.819Z,8.05
2022-11-20T10:53:27.485Z,7.53
2022-11-20T10:56:12.888Z,5.47
2022-11-20T10:58:53.779Z,4.60
2022-11-20T11:01:22.575Z,5.63
2022-11-20T11:03:50.966Z,7.88
2022-11-20T11:06:50.339Z,8.35
2022-11-20T11:09:21.683Z,7.70
2022-11-20T11:11:48.924Z,7.85
2022-11-20T11:14:16.907Z,7.72
2022-11-20T11:16:58.601Z,8.20
2022-11-20T11:19:25.884Z,8.10
2022-11-20T11:21:57.888Z,7.57
2022-11-20T11:24:41.567Z,8.02
2022-11-20T11:27:17.633Z,6.40
2022-11-20T11:29:45.427Z,6.78
2022-11-20T11:32:16.508Z,6.50
2022-11-20T11:34:43.479Z,7.07
2022-11-20T11:37:22.566Z,6.82
2022-11-20T11:40:03.895Z,7.28
2022-11-20T11:42:43.015Z,7.05
2022-11-20T11:45:16.301Z,7.50
2022-11-20T11:47:43.043Z,7.37
2022-11-20T11:50:09.695Z,7.38
2022-11-20T11:53:07.461Z,8.20
2022-11-20T11:55:54.987Z,7.72
2022-11-20T11:58:33.611Z,7.53
2022-11-20T12:01:13.039Z,7.27
2022-11-20T12:03:43.707Z,6.47
2022-11-20T12:06:14.945Z,7.30
2022-11-20T12:08:54.305Z,7.38
2022-11-20T12:11:26.848Z,7.32
2022-11-20T12:14:04.024Z,6.90
2022-11-20T12:16:34.957Z,7.28
2022-11-20T12:19:01.772Z,7.10
2022-11-20T12:21:49.950Z,7.32
2022-11-20T12:24:41.882Z,7.43
2022-11-20T12:27:16.733Z,4.60
2022-11-20T12:29:49.489Z,5.40
2022-11-20T12:32:16.422Z,4.80
2022-11-20T12:34:49.157Z,4.40
2022-11-20T12:37:33.545Z,4.10
2022-11-20T12:40:16.762Z,3.80
2022-11-20T12:42:55.834Z,3.65
2022-11-20T12:45:43.997Z,3.72
2022-11-20T12:48:33.139Z,4.25
2022-11-20T12:51:28.257Z,4.40
2022-11-20T12:54:08.171Z,3.80
2022-11-20T12:57:24.433Z,3.83
2022-11-20T13:00:15.323Z,4.30
2022-11-20T13:03:21.754Z,4.28
2022-11-20T13:06:06.672Z,4.60
2022-11-20T13:08:39.662Z,4.40
2022-11-20T13:11:22.647Z,4.38
2022-11-20T13:14:01.256Z,4.20
2022-11-20T13:16:40.097Z,4.93
2022-11-20T13:19:12.595Z,4.10
2022-11-20T13:21:42.970Z,4.00
2022-11-20T13:24:22.038Z,3.83
2022-11-20T13:26:49.415Z,3.88
2022-11-20T13:29:20.639Z,4.20
2022-11-20T13:31:49.613Z,4.45
2022-11-20T13:34:28.170Z,4.70
2022-11-20T13:36:57.508Z,4.38
2022-11-20T13:39:30.926Z,4.15
2022-11-20T13:42:24.732Z,4.95
2022-11-20T13:45:09.495Z,5.35
2022-11-20T14:02:41.781Z,4.72
2022-11-20T14:05:20.706Z,4.77
2022-11-20T14:07:50.154Z,4.70
2022-11-20T14:10:32.372Z,5.15
2022-11-20T14:13:00.092Z,5.28
2022-11-20T14:15:30.411Z,4.70
2022-11-20T14:17:57.771Z,3.90
2022-11-20T14:20:30.758Z,4.05
2022-11-20T14:22:57.666Z,4.40
2022-11-20T14:25:27.189Z,4.20
2022-11-20T14:27:57.118Z,4.05
2022-11-20T14:30:46.037Z,3.90
2022-11-20T14:33:15.316Z,4.38
2022-11-20T14:35:47.405Z,4.57
2022-11-20T14:38:17.804Z,5.18
2022-11-20T14:40:44.807Z,4.80
2022-11-20T14:43:29.175Z,5.00
2022-11-20T14:46:05.563Z,5.63
2022-11-20T14:48:40.209Z,5.53
2022-11-20T14:51:07.169Z,4.60
2022-11-20T14:53:33.882Z,4.53
2022-11-20T14:56:02.898Z,4.90
2022-11-20T14:58:34.903Z,6.13
2022-11-20T15:01:06.871Z,9.52
2022-11-20T15:03:38.785Z,7.63
2022-11-20T15:06:07.666Z,6.18
2022-11-20T15:08:35.133Z,7.23
2022-11-20T15:11:02.808Z,10.10
2022-11-20T15:13:40.250Z,9.68
2022-11-20T15:16:19.838Z,9.18
2022-11-20T15:18:46.744Z,9.18
2022-11-20T15:21:19.297Z,8.33
2022-11-20T15:23:46.469Z,7.50
2022-11-20T15:26:19.600Z,6.95
2022-11-20T15:28:48.750Z,7.53
2022-11-20T15:31:17.760Z,6.75
2022-11-20T15:33:44.634Z,7.30
2022-11-20T15:36:11.787Z,6.20
2022-11-20T15:38:38.647Z,6.40
2022-11-20T15:41:06.029Z,5.60
2022-11-20T15:43:32.794Z,6.18
2022-11-20T15:46:06.120Z,6.23
2022-11-20T15:48:48.548Z,6.15
2022-11-20T15:51:28.766Z,5.90
2022-11-20T15:53:56.933Z,8.50
2022-11-20T15:56:23.957Z,7.68
2022-11-20T15:58:50.962Z,6.80
2022-11-20T16:01:22.675Z,7.45
2022-11-20T16:03:49.802Z,5.85
2022-11-20T16:06:16.890Z,7.20
2022-11-20T16:08:43.853Z,7.68
2022-11-20T16:11:16.022Z,6.07
2022-11-20T16:13:43.384Z,6.68
2022-11-20T16:16:23.823Z,6.05
2022-11-20T16:18:51.453Z,6.30
2022-11-20T16:21:18.744Z,6.38
2022-11-20T16:23:45.782Z,6.50
2022-11-20T16:26:14.952Z,6.05
2022-11-20T16:28:41.789Z,6.40
2022-11-20T16:31:16.375Z,7.20
2022-11-20T16:33:43.634Z,7.30
2022-11-20T16:36:16.596Z,7.73
2022-11-20T16:38:43.383Z,6.97
2022-11-20T16:41:10.844Z,5.95
2022-11-20T16:43:37.627Z,8.40
2022-11-20T16:46:05.111Z,11.15
2022-11-20T16:48:31.903Z,15.47
2022-11-20T16:50:58.702Z,15.35
2022-11-20T16:53:25.707Z,12.80
2022-11-20T16:55:52.414Z,11.68
2022-11-20T16:58:19.318Z,12.23
2022-11-20T17:00:51.385Z,10.10
2022-11-20T17:03:18.799Z,15.40
2022-11-20T17:05:45.635Z,10.98
2022-11-20T17:08:12.435Z,8.88
2022-11-20T17:10:39.201Z,10.00
2022-11-20T17:13:05.971Z,7.50
2022-11-20T17:15:32.703Z,8.27
2022-11-20T17:17:59.511Z,9.25
2022-11-20T17:20:26.224Z,9.40
2022-11-20T17:22:53.152Z,10.15
2022-11-20T17:25:19.928Z,10.40
2022-11-20T17:27:46.792Z,11.38
2022-11-20T17:30:13.626Z,12.15
2022-11-20T17:32:40.430Z,11.50
2022-11-20T17:35:07.415Z,10.85
2022-11-20T17:37:34.272Z,10.70
2022-11-20T17:40:00.975Z,10.30
2022-11-20T17:42:27.781Z,9.45
2022-11-20T17:44:54.696Z,9.73
2022-11-20T17:47:21.493Z,8.93
2022-11-20T17:49:48.420Z,11.23
2022-11-20T17:52:15.239Z,11.25
2022-11-20T17:54:42.037Z,8.98
2022-11-20T17:57:10.185Z,9.23
2022-11-20T17:59:38.423Z,7.25
2022-11-20T18:02:05.330Z,6.23
2022-11-20T18:04:32.506Z,7.10
2022-11-20T18:06:59.279Z,7.40
2022-11-20T18:09:26.192Z,6.60
2022-11-20T18:11:52.955Z,7.20
2022-11-20T18:14:19.700Z,7.77
2022-11-20T18:16:49.311Z,6.82
2022-11-20T18:19:18.952Z,5.85
2022-11-20T18:21:45.737Z,10.13
2022-11-20T18:24:12.740Z,12.80
2022-11-20T18:26:44.113Z,18.43
2022-11-20T18:29:14.748Z,13.82
2022-11-20T18:31:41.605Z,11.20
2022-11-20T18:34:09.708Z,7.30
2022-11-20T18:36:36.613Z,6.05
2022-11-20T18:39:04.205Z,6.10
2022-11-20T18:41:31.523Z,5.70
2022-11-20T18:43:58.513Z,5.90
2022-11-20T18:46:25.704Z,6.00
2022-11-20T18:48:52.637Z,6.30
2022-11-20T18:51:19.414Z,7.73
2022-11-20T18:53:47.661Z,10.75
2022-11-20T18:56:14.676Z,11.48
2022-11-20T18:58:41.404Z,9.32
2022-11-20T19:01:09.839Z,9.88
2022-11-20T19:03:39.989Z,8.17
2022-11-20T19:06:09.423Z,9.48
2022-11-20T19:08:36.073Z,9.40
2022-11-20T19:11:11.167Z,10.55
2022-11-20T19:13:39.144Z,9.30
2022-11-20T19:16:08.170Z,8.33
2022-11-20T19:18:35.327Z,8.88
2022-11-20T19:21:13.539Z,8.60
2022-11-20T19:23:40.851Z,8.95
2022-11-20T19:26:10.147Z,7.53
2022-11-20T19:28:38.142Z,6.77
2022-11-20T19:31:10.774Z,9.65
2022-11-20T19:33:37.868Z,7.95
2022-11-20T19:36:23.232Z,7.03
2022-11-20T19:38:52.014Z,9.57
2022-11-20T19:41:21.743Z,9.33
2022-11-20T19:43:48.657Z,8.57
2022-11-20T19:46:19.822Z,7.72
2022-11-20T19:48:46.744Z,6.28
2022-11-20T19:51:19.754Z,6.15
2022-11-20T19:53:46.628Z,6.03
2022-11-20T19:56:13.941Z,5.10
2022-11-20T19:58:41.013Z,5.00
2022-11-20T20:01:15.071Z,7.38
2022-11-20T20:03:42.588Z,8.95
2022-11-20T20:06:12.387Z,6.17
2022-11-20T20:08:39.246Z,7.30
2022-11-20T20:11:20.383Z,8.00
2022-11-20T20:13:47.633Z,7.80
2022-11-20T20:16:23.370Z,9.63
2022-11-20T20:18:53.907Z,8.60
2022-11-20T20:21:20.651Z,8.45
2022-11-20T20:23:51.856Z,9.90
2022-11-20T20:26:18.691Z,11.93
2022-11-20T20:28:45.616Z,9.63
2022-11-20T20:31:15.761Z,8.70
2022-11-20T20:33:43.040Z,7.47
2022-11-20T20:36:12.087Z,5.80
2022-11-20T20:38:39.046Z,5.65
2022-11-20T20:41:05.955Z,11.27
2022-11-20T20:43:32.672Z,11.87
2022-11-20T20:45:59.582Z,12.65
2022-11-20T20:48:27.002Z,12.88
2022-11-20T20:51:01.093Z,10.55
2022-11-20T20:53:30.832Z,13.68
2022-11-20T20:55:59.382Z,12.57
2022-11-20T20:58:27.378Z,10.32
2022-11-20T21:00:54.284Z,9.13
2022-11-20T21:03:21.732Z,9.98
2022-11-20T21:05:56.047Z,8.57
2022-11-20T21:08:23.240Z,8.60
2022-11-20T21:10:50.710Z,6.75
2022-11-20T21:13:17.665Z,9.77
2022-11-20T21:15:47.847Z,10.38
2022-11-20T21:18:20.206Z,10.07
2022-11-20T21:20:48.581Z,12.10
2022-11-20T21:23:15.650Z,10.77
2022-11-20T21:25:42.525Z,9.18
2022-11-20T21:28:12.110Z,9.05
2022-11-20T21:30:42.559Z,9.07
2022-11-20T21:33:09.336Z,8.50
2022-11-20T21:35:36.143Z,8.65
2022-11-20T21:38:02.873Z,8.82
2022-11-20T21:40:29.905Z,10.63
2022-11-20T21:42:56.780Z,10.00
2022-11-20T21:45:23.772Z,9.57
2022-11-20T21:47:51.116Z,9.95
2022-11-20T21:50:18.652Z,9.63
2022-11-20T21:52:45.532Z,9.30
2022-11-20T21:55:12.422Z,10.63
2022-11-20T21:57:39.150Z,10.33
2022-11-20T22:00:06.521Z,11.00
2022-11-20T22:02:33.362Z,10.30
2022-11-20T22:05:00.177Z,10.02
2022-11-20T22:07:26.915Z,10.77
2022-11-20T22:09:53.749Z,11.27
2022-11-20T22:12:20.557Z,12.75
2022-11-20T22:14:47.514Z,11.25
2022-11-20T22:17:14.630Z,9.65
2022-11-20T22:19:41.498Z,8.35
2022-11-20T22:22:08.453Z,9.40
2022-11-20T22:24:35.317Z,9.30
2022-11-20T22:27:02.113Z,8.38
2022-11-20T22:29:28.974Z,8.60
2022-11-20T22:31:55.718Z,8.35
2022-11-20T22:34:22.899Z,11.20
2022-11-20T22:36:50.009Z,12.13
2022-11-20T22:39:16.836Z,9.18
2022-11-20T22:41:43.748Z,9.07
2022-11-20T22:44:13.749Z,9.32
2022-11-20T22:46:40.631Z,10.10
2022-11-20T22:49:08.230Z,10.40
2022-11-20T22:51:40.363Z,9.20
2022-11-20T22:54:07.813Z,9.68
2022-11-20T22:56:34.810Z,10.00
2022-11-20T22:59:01.628Z,8.47
2022-11-20T23:01:33.784Z,8.48
2022-11-20T23:04:03.972Z,8.52
2022-11-20T23:06:31.117Z,8.95
2022-11-20T23:08:57.948Z,9.25
2022-11-20T23:11:27.604Z,8.70
2022-11-20T23:13:56.037Z,8.70
2022-11-20T23:16:22.793Z,11.38
2022-11-20T23:18:57.500Z,9.98
2022-11-20T23:21:24.637Z,12.82
2022-11-20T23:23:54.129Z,10.70
2022-11-20T23:26:23.321Z,9.13
2022-11-20T23:28:50.340Z,9.77
2022-11-20T23:31:17.251Z,12.02
2022-11-20T23:33:45.946Z,11.40
2022-11-20T23:36:13.748Z,11.10
2022-11-20T23:38:40.800Z,8.93
2022-11-20T23:41:08.321Z,9.20
2022-11-20T23:43:35.563Z,9.25
2022-11-20T23:46:04.021Z,11.55
2022-11-20T23:48:36.350Z,13.70
2022-11-20T23:51:04.169Z,13.15
2022-11-20T23:53:31.846Z,11.07
2022-11-20T23:56:03.904Z,9.00
2022-11-20T23:58:36.387Z,8.60
